createdAt,value
2016-11-21T00:00:00.449Z,0
2016-11-21T00:00:32.782Z,0
2016-11-21T00:01:05.100Z,0
2016-11-21T00:01:37.445Z,0
2016-11-21T00:02:09.771Z,0
2016-11-21T00:02:42.102Z,0
2016-11-21T00:03:14.440Z,0
2016-11-21T00:03:46.761Z,0
2016-11-21T00:04:19.079Z,0
2016-11-21T00:04:51.405Z,0
2016-11-21T00:05:23.732Z,0
2016-11-21T00:05:56.091Z,0
2016-11-21T00:06:28.418Z,0
2016-11-21T00:07:00.759Z,0
2016-11-21T00:07:33.088Z,0
2016-11-21T00:08:05.403Z,0
2016-11-21T00:08:37.727Z,0
2016-11-21T00:09:10.064Z,0
2016-11-21T00:09:42.399Z,0
2016-11-21T00:10:14.727Z,0
2016-11-21T00:10:47.048Z,0
2016-11-21T00:11:19.382Z,0
2016-11-21T00:11:51.708Z,0
2016-11-21T00:12:24.023Z,0
2016-11-21T00:12:56.351Z,0
2016-11-21T00:13:28.681Z,0
2016-11-21T00:14:01.004Z,0
2016-11-21T00:14:33.340Z,0
2016-11-21T00:15:05.670Z,0
2016-11-21T00:15:38.013Z,0
2016-11-21T00:16:10.349Z,0
2016-11-21T00:16:42.678Z,0
2016-11-21T00:17:15.030Z,0
2016-11-21T00:17:47.360Z,0
2016-11-21T00:18:19.697Z,0
2016-11-21T00:18:52.013Z,0
2016-11-21T00:19:24.364Z,0
2016-11-21T00:19:56.675Z,0
2016-11-21T00:20:29.037Z,0
2016-11-21T00:21:01.354Z,0
2016-11-21T00:21:33.671Z,0
2016-11-21T00:22:06.019Z,0
2016-11-21T00:22:38.337Z,0
2016-11-21T00:23:10.719Z,0
2016-11-21T00:23:43.052Z,0
2016-11-21T00:24:15.381Z,0
2016-11-21T00:24:47.711Z,0
2016-11-21T00:25:20.036Z,0
2016-11-21T00:25:52.354Z,0
2016-11-21T00:26:24.683Z,0
2016-11-21T00:26:57.007Z,0
2016-11-21T00:27:29.341Z,0
2016-11-21T00:28:01.669Z,0
2016-11-21T00:28:33.998Z,0
2016-11-21T00:29:06.338Z,0
2016-11-21T00:29:38.653Z,0
2016-11-21T00:30:10.973Z,0
2016-11-21T00:30:43.293Z,0
2016-11-21T00:31:15.620Z,0
2016-11-21T00:31:47.957Z,0
2016-11-21T00:32:20.279Z,0
2016-11-21T00:32:52.594Z,0
2016-11-21T00:33:24.929Z,0
2016-11-21T00:33:57.262Z,0
2016-11-21T00:34:29.609Z,0
2016-11-21T00:35:01.937Z,0
2016-11-21T00:35:34.266Z,0
2016-11-21T00:36:06.604Z,0
2016-11-21T00:36:38.927Z,0
2016-11-21T00:37:11.251Z,0
2016-11-21T00:37:43.568Z,0
2016-11-21T00:38:15.904Z,0
2016-11-21T00:38:48.235Z,0
2016-11-21T00:39:20.561Z,0
2016-11-21T00:39:52.890Z,0
2016-11-21T00:40:25.210Z,0
2016-11-21T00:40:57.536Z,0
2016-11-21T00:41:29.856Z,0
2016-11-21T00:42:02.186Z,0
2016-11-21T00:42:34.504Z,0
2016-11-21T00:43:06.824Z,0
2016-11-21T00:43:39.151Z,0
2016-11-21T00:44:11.463Z,0
2016-11-21T00:44:43.776Z,0
2016-11-21T00:45:16.098Z,0
2016-11-21T00:45:48.414Z,0
2016-11-21T00:46:20.742Z,0
2016-11-21T00:46:53.061Z,0
2016-11-21T00:47:25.381Z,0
2016-11-21T00:47:57.726Z,0
2016-11-21T00:48:30.056Z,0
2016-11-21T00:49:02.409Z,0
2016-11-21T00:49:34.730Z,0
2016-11-21T00:50:07.059Z,0
2016-11-21T00:50:39.373Z,0
2016-11-21T00:51:11.707Z,0
2016-11-21T00:51:44.067Z,0
2016-11-21T00:52:16.393Z,0
2016-11-21T00:52:48.709Z,0
2016-11-21T00:53:21.044Z,0
2016-11-21T00:53:53.390Z,0
2016-11-21T00:54:25.708Z,0
2016-11-21T00:54:58.050Z,0
2016-11-21T00:55:30.364Z,0
2016-11-21T00:56:02.682Z,0
2016-11-21T00:56:35.004Z,0
2016-11-21T00:57:07.321Z,0
2016-11-21T00:57:39.614Z,0
2016-11-21T00:58:11.948Z,0
2016-11-21T00:58:44.260Z,0
2016-11-21T00:59:16.579Z,0
2016-11-21T00:59:48.912Z,0
2016-11-21T01:00:21.250Z,0
2016-11-21T01:00:53.634Z,0
2016-11-21T01:01:25.961Z,0
2016-11-21T01:01:58.280Z,0
2016-11-21T01:02:30.593Z,0
2016-11-21T01:03:02.949Z,0
2016-11-21T01:03:35.280Z,0
2016-11-21T01:04:07.600Z,0
2016-11-21T01:04:39.910Z,0
2016-11-21T01:05:12.235Z,0
2016-11-21T01:05:44.551Z,0
2016-11-21T01:06:16.865Z,0
2016-11-21T01:06:49.187Z,0
2016-11-21T01:07:21.512Z,0
2016-11-21T01:07:53.846Z,0
2016-11-21T01:08:26.205Z,0
2016-11-21T01:08:58.539Z,0
2016-11-21T01:09:30.876Z,0
2016-11-21T01:10:03.193Z,0
2016-11-21T01:10:35.530Z,0
2016-11-21T01:11:07.883Z,0
2016-11-21T01:11:40.217Z,0
2016-11-21T01:12:12.634Z,0
2016-11-21T01:12:44.949Z,0
2016-11-21T01:13:17.279Z,0
2016-11-21T01:13:49.597Z,0
2016-11-21T01:14:21.920Z,0
2016-11-21T01:14:54.239Z,0
2016-11-21T01:15:26.550Z,0
2016-11-21T01:15:58.867Z,0
2016-11-21T01:16:31.211Z,0
2016-11-21T01:17:03.524Z,0
2016-11-21T01:17:35.847Z,0
2016-11-21T01:18:08.161Z,0
2016-11-21T01:18:40.479Z,0
2016-11-21T01:19:12.794Z,0
2016-11-21T01:19:45.115Z,0
2016-11-21T01:20:18.177Z,0
2016-11-21T01:20:50.499Z,0
2016-11-21T01:21:22.826Z,0
2016-11-21T01:21:55.149Z,0
2016-11-21T01:22:27.476Z,0
2016-11-21T01:22:59.782Z,0
2016-11-21T01:23:32.121Z,0
2016-11-21T01:24:04.458Z,0
2016-11-21T01:24:36.789Z,0
2016-11-21T01:25:09.124Z,0
2016-11-21T01:25:41.443Z,0
2016-11-21T01:26:13.771Z,0
2016-11-21T01:26:46.090Z,0
2016-11-21T01:27:18.401Z,0
2016-11-21T01:27:50.726Z,0
2016-11-21T01:28:23.059Z,0
2016-11-21T01:28:55.393Z,0
2016-11-21T01:29:27.729Z,0
2016-11-21T01:30:00.060Z,0
2016-11-21T01:30:32.384Z,0
2016-11-21T01:31:04.759Z,0
2016-11-21T01:31:37.086Z,0
2016-11-21T01:32:09.419Z,0
2016-11-21T01:32:41.736Z,0
2016-11-21T01:33:14.071Z,0
2016-11-21T01:33:46.400Z,0
2016-11-21T01:34:18.740Z,0
2016-11-21T01:34:51.056Z,0
2016-11-21T01:35:23.387Z,0
2016-11-21T01:35:55.724Z,0
2016-11-21T01:36:28.044Z,0
2016-11-21T01:37:00.372Z,0
2016-11-21T01:37:32.702Z,0
2016-11-21T01:38:05.014Z,0
2016-11-21T01:38:37.343Z,0
2016-11-21T01:39:09.708Z,0
2016-11-21T01:39:42.061Z,0
2016-11-21T01:40:14.385Z,0
2016-11-21T01:40:46.705Z,0
2016-11-21T01:41:19.037Z,0
2016-11-21T01:41:51.437Z,0
2016-11-21T01:42:23.770Z,0
2016-11-21T01:42:56.096Z,0
2016-11-21T01:43:28.425Z,0
2016-11-21T01:44:00.759Z,0
2016-11-21T01:44:33.093Z,0
2016-11-21T01:45:05.443Z,0
2016-11-21T01:45:37.780Z,0
2016-11-21T01:46:10.111Z,0
2016-11-21T01:46:42.431Z,0
2016-11-21T01:47:14.761Z,0
2016-11-21T01:47:47.088Z,0
2016-11-21T01:48:19.424Z,0
2016-11-21T01:48:51.785Z,0
2016-11-21T01:49:24.121Z,0
2016-11-21T01:49:56.454Z,0
2016-11-21T01:50:28.788Z,0
2016-11-21T01:51:01.109Z,0
2016-11-21T01:51:33.423Z,0
2016-11-21T01:52:05.735Z,0
2016-11-21T01:52:38.067Z,0
2016-11-21T01:53:10.388Z,0
2016-11-21T01:53:42.713Z,0
2016-11-21T01:54:15.014Z,0
2016-11-21T01:54:47.362Z,0
2016-11-21T01:55:19.727Z,0
2016-11-21T01:55:52.061Z,0
2016-11-21T01:56:24.389Z,0
2016-11-21T01:56:56.804Z,0
2016-11-21T01:57:29.121Z,0
2016-11-21T01:58:01.444Z,0
2016-11-21T01:58:33.766Z,0
2016-11-21T01:59:06.113Z,0
2016-11-21T01:59:38.431Z,0
2016-11-21T02:00:10.745Z,0
2016-11-21T02:00:43.073Z,0
2016-11-21T02:01:15.399Z,0
2016-11-21T02:01:47.726Z,0
2016-11-21T02:02:20.045Z,0
2016-11-21T02:02:52.381Z,0
2016-11-21T02:03:24.713Z,0
2016-11-21T02:03:57.034Z,0
2016-11-21T02:04:29.370Z,0
2016-11-21T02:05:01.700Z,0
2016-11-21T02:05:34.041Z,0
2016-11-21T02:06:06.361Z,0
2016-11-21T02:06:38.697Z,0
2016-11-21T02:07:11.015Z,0
2016-11-21T02:07:43.345Z,0
2016-11-21T02:08:15.696Z,0
2016-11-21T02:08:48.008Z,0
2016-11-21T02:09:20.349Z,0
2016-11-21T02:09:52.661Z,0
2016-11-21T02:10:24.988Z,0
2016-11-21T02:10:57.313Z,0
2016-11-21T02:11:29.642Z,0
2016-11-21T02:12:01.977Z,0
2016-11-21T02:12:34.296Z,0
2016-11-21T02:13:06.612Z,0
2016-11-21T02:13:38.951Z,0
2016-11-21T02:14:11.282Z,0
2016-11-21T02:14:43.609Z,0
2016-11-21T02:15:15.934Z,0
2016-11-21T02:15:48.256Z,0
2016-11-21T02:16:20.584Z,0
2016-11-21T02:16:52.921Z,0
2016-11-21T02:17:25.259Z,0
2016-11-21T02:17:57.610Z,0
2016-11-21T02:18:29.958Z,0
2016-11-21T02:19:02.291Z,0
2016-11-21T02:19:34.629Z,0
2016-11-21T02:20:06.947Z,0
2016-11-21T02:20:39.249Z,0
2016-11-21T02:21:11.574Z,0
2016-11-21T02:21:43.899Z,0
2016-11-21T02:22:16.227Z,0
2016-11-21T02:22:48.542Z,0
2016-11-21T02:23:20.873Z,0
2016-11-21T02:23:53.202Z,0
2016-11-21T02:24:25.517Z,0
2016-11-21T02:24:57.847Z,0
2016-11-21T02:25:30.168Z,0
2016-11-21T02:26:02.495Z,0
2016-11-21T02:26:34.857Z,0
2016-11-21T02:27:07.168Z,0
2016-11-21T02:27:39.496Z,0
2016-11-21T02:28:11.814Z,0
2016-11-21T02:28:44.147Z,0
2016-11-21T02:29:16.460Z,0
2016-11-21T02:29:48.782Z,0
2016-11-21T02:30:21.133Z,0
2016-11-21T02:30:53.466Z,0
2016-11-21T02:31:25.821Z,0
2016-11-21T02:31:58.152Z,0
2016-11-21T02:32:30.477Z,0
2016-11-21T02:33:02.845Z,0
2016-11-21T02:33:35.175Z,0
2016-11-21T02:34:07.488Z,0
2016-11-21T02:34:39.809Z,0
2016-11-21T02:35:12.143Z,0
2016-11-21T02:35:44.461Z,0
2016-11-21T02:36:16.768Z,0
2016-11-21T02:36:49.097Z,0
2016-11-21T02:37:21.430Z,0
2016-11-21T02:37:53.748Z,0
2016-11-21T02:38:26.053Z,0
2016-11-21T02:38:58.362Z,0
2016-11-21T02:39:30.679Z,0
2016-11-21T02:40:03.001Z,0
2016-11-21T02:40:35.332Z,0
2016-11-21T02:41:07.659Z,0
2016-11-21T02:41:39.987Z,0
2016-11-21T02:42:12.307Z,0
2016-11-21T02:42:44.644Z,0
2016-11-21T02:43:16.978Z,0
2016-11-21T02:43:49.288Z,0
2016-11-21T02:44:21.609Z,0
2016-11-21T02:44:53.944Z,0
2016-11-21T02:45:26.343Z,0
2016-11-21T02:45:58.671Z,0
2016-11-21T02:46:30.998Z,0
2016-11-21T02:47:03.321Z,0
2016-11-21T02:47:35.660Z,0
2016-11-21T02:48:07.999Z,0
2016-11-21T02:48:40.315Z,0
2016-11-21T02:49:12.687Z,0
2016-11-21T02:49:45.006Z,0
2016-11-21T02:50:17.323Z,0
2016-11-21T02:50:49.671Z,0
2016-11-21T02:51:22.000Z,0
2016-11-21T02:51:54.338Z,0
2016-11-21T02:52:26.673Z,0
2016-11-21T02:52:58.992Z,0
2016-11-21T02:53:31.329Z,0
2016-11-21T02:54:03.662Z,0
2016-11-21T02:54:35.977Z,0
2016-11-21T02:55:08.304Z,0
2016-11-21T02:55:40.639Z,0
2016-11-21T02:56:13.002Z,0
2016-11-21T02:56:45.312Z,0
2016-11-21T02:57:17.617Z,0
2016-11-21T02:57:49.946Z,0
2016-11-21T02:58:22.265Z,0
2016-11-21T02:58:54.585Z,0
2016-11-21T02:59:26.913Z,0
2016-11-21T02:59:59.222Z,0
2016-11-21T03:00:31.599Z,0
2016-11-21T03:01:03.928Z,0
2016-11-21T03:01:36.263Z,0
2016-11-21T03:02:08.592Z,0
2016-11-21T03:02:40.922Z,0
2016-11-21T03:03:13.232Z,0
2016-11-21T03:03:45.545Z,0
2016-11-21T03:04:17.871Z,0
2016-11-21T03:04:50.217Z,0
2016-11-21T03:05:22.532Z,0
2016-11-21T03:05:54.850Z,0
2016-11-21T03:06:27.181Z,0
2016-11-21T03:06:59.497Z,0
2016-11-21T03:07:31.853Z,0
2016-11-21T03:08:04.186Z,0
2016-11-21T03:08:36.539Z,0
2016-11-21T03:09:08.864Z,0
2016-11-21T03:09:41.188Z,0
2016-11-21T03:10:13.538Z,0
2016-11-21T03:10:45.851Z,0
2016-11-21T03:11:18.207Z,0
2016-11-21T03:11:50.590Z,0
2016-11-21T03:12:22.917Z,0
2016-11-21T03:12:55.237Z,0
2016-11-21T03:13:27.573Z,0
2016-11-21T03:13:59.887Z,0
2016-11-21T03:14:32.201Z,0
2016-11-21T03:15:04.521Z,0
2016-11-21T03:15:36.845Z,0
2016-11-21T03:16:09.171Z,0
2016-11-21T03:16:41.492Z,0
2016-11-21T03:17:13.827Z,0
2016-11-21T03:17:46.164Z,0
2016-11-21T03:18:18.519Z,0
2016-11-21T03:18:50.852Z,0
2016-11-21T03:19:23.184Z,0
2016-11-21T03:19:55.515Z,0
2016-11-21T03:20:27.851Z,0
2016-11-21T03:21:00.214Z,0
2016-11-21T03:21:32.536Z,0
2016-11-21T03:22:04.861Z,0
2016-11-21T03:22:37.190Z,0
2016-11-21T03:23:09.502Z,0
2016-11-21T03:23:41.836Z,0
2016-11-21T03:24:14.165Z,0
2016-11-21T03:24:46.486Z,0
2016-11-21T03:25:18.836Z,0
2016-11-21T03:25:51.159Z,0
2016-11-21T03:26:23.491Z,0
2016-11-21T03:26:55.820Z,0
2016-11-21T03:27:28.146Z,0
2016-11-21T03:28:00.487Z,0
2016-11-21T03:28:32.826Z,0
2016-11-21T03:29:05.184Z,0
2016-11-21T03:29:37.517Z,0
2016-11-21T03:30:09.833Z,0
2016-11-21T03:30:42.150Z,0
2016-11-21T03:31:14.480Z,0
2016-11-21T03:31:46.819Z,0
2016-11-21T03:32:19.151Z,0
2016-11-21T03:32:51.479Z,0
2016-11-21T03:33:23.859Z,0
2016-11-21T03:33:56.161Z,0
2016-11-21T03:34:28.477Z,0
2016-11-21T03:35:00.819Z,0
2016-11-21T03:35:33.126Z,0
2016-11-21T03:36:05.442Z,0
2016-11-21T03:36:37.786Z,0
2016-11-21T03:37:10.100Z,0
2016-11-21T03:37:42.414Z,0
2016-11-21T03:38:14.759Z,0
2016-11-21T03:38:47.091Z,0
2016-11-21T03:39:19.417Z,0
2016-11-21T03:39:51.741Z,0
2016-11-21T03:40:24.067Z,0
2016-11-21T03:40:56.403Z,0
2016-11-21T03:41:28.745Z,0
2016-11-21T03:42:01.070Z,0
2016-11-21T03:42:33.398Z,0
2016-11-21T03:43:05.700Z,0
2016-11-21T03:43:38.043Z,0
2016-11-21T03:44:10.372Z,0
2016-11-21T03:44:42.701Z,0
2016-11-21T03:45:15.027Z,0
2016-11-21T03:45:47.362Z,0
2016-11-21T03:46:19.685Z,0
2016-11-21T03:46:51.997Z,0
2016-11-21T03:47:24.303Z,0
2016-11-21T03:47:56.617Z,0
2016-11-21T03:48:28.934Z,0
2016-11-21T03:49:01.255Z,0
2016-11-21T03:49:33.568Z,0
2016-11-21T03:50:05.899Z,0
2016-11-21T03:50:38.217Z,0
2016-11-21T03:51:10.554Z,0
2016-11-21T03:51:42.854Z,0
2016-11-21T03:52:15.179Z,0
2016-11-21T03:52:47.506Z,0
2016-11-21T03:53:19.838Z,0
2016-11-21T03:53:52.158Z,0
2016-11-21T03:54:24.480Z,0
2016-11-21T03:54:56.813Z,0
2016-11-21T03:55:29.135Z,0
2016-11-21T03:56:01.459Z,0
2016-11-21T03:56:33.782Z,0
2016-11-21T03:57:06.101Z,0
2016-11-21T03:57:38.429Z,0
2016-11-21T03:58:10.781Z,0
2016-11-21T03:58:43.114Z,0
2016-11-21T03:59:15.444Z,0
2016-11-21T03:59:47.756Z,0
2016-11-21T04:00:20.069Z,0
2016-11-21T04:00:52.393Z,0
2016-11-21T04:01:24.717Z,0
2016-11-21T04:01:57.044Z,0
2016-11-21T04:02:29.394Z,0
2016-11-21T04:03:01.700Z,0
2016-11-21T04:03:34.019Z,0
2016-11-21T04:04:06.346Z,0
2016-11-21T04:04:38.709Z,0
2016-11-21T04:05:11.040Z,0
2016-11-21T04:05:43.353Z,0
2016-11-21T04:06:15.674Z,0
2016-11-21T04:06:48.002Z,0
2016-11-21T04:07:20.335Z,0
2016-11-21T04:07:52.668Z,0
2016-11-21T04:08:24.986Z,0
2016-11-21T04:08:57.328Z,0
2016-11-21T04:09:29.650Z,0
2016-11-21T04:10:01.974Z,0
2016-11-21T04:10:34.328Z,0
2016-11-21T04:11:06.652Z,0
2016-11-21T04:11:38.977Z,0
2016-11-21T04:12:11.302Z,0
2016-11-21T04:12:43.650Z,0
2016-11-21T04:13:15.970Z,0
2016-11-21T04:13:48.293Z,0
2016-11-21T04:14:20.629Z,0
2016-11-21T04:14:52.945Z,0
2016-11-21T04:15:25.272Z,0
2016-11-21T04:15:57.605Z,0
2016-11-21T04:16:29.945Z,0
2016-11-21T04:17:02.258Z,0
2016-11-21T04:17:34.616Z,0
2016-11-21T04:18:06.931Z,0
2016-11-21T04:18:39.258Z,0
2016-11-21T04:19:11.580Z,0
2016-11-21T04:19:43.907Z,0
2016-11-21T04:20:16.240Z,0
2016-11-21T04:20:48.567Z,0
2016-11-21T04:21:20.891Z,0
2016-11-21T04:21:53.200Z,0
2016-11-21T04:22:25.518Z,0
2016-11-21T04:22:57.852Z,0
2016-11-21T04:23:30.169Z,0
2016-11-21T04:24:02.479Z,0
2016-11-21T04:24:34.828Z,0
2016-11-21T04:25:07.150Z,0
2016-11-21T04:25:39.482Z,0
2016-11-21T04:26:11.799Z,0
2016-11-21T04:26:44.115Z,0
2016-11-21T04:27:16.436Z,0
2016-11-21T04:27:48.756Z,0
2016-11-21T04:28:21.081Z,0
2016-11-21T04:28:53.408Z,0
2016-11-21T04:29:25.751Z,0
2016-11-21T04:29:58.074Z,0
2016-11-21T04:30:30.408Z,0
2016-11-21T04:31:02.733Z,0
2016-11-21T04:31:35.075Z,0
2016-11-21T04:32:07.387Z,0
2016-11-21T04:32:39.749Z,0
2016-11-21T04:33:12.062Z,0
2016-11-21T04:33:44.382Z,0
2016-11-21T04:34:16.738Z,0
2016-11-21T04:34:49.064Z,0
2016-11-21T04:35:21.378Z,0
2016-11-21T04:35:53.704Z,0
2016-11-21T04:36:26.036Z,0
2016-11-21T04:36:58.355Z,0
2016-11-21T04:37:30.676Z,0
2016-11-21T04:38:03.045Z,0
2016-11-21T04:38:35.356Z,0
2016-11-21T04:39:07.710Z,0
2016-11-21T04:39:40.040Z,0
2016-11-21T04:40:12.345Z,0
2016-11-21T04:40:44.688Z,0
2016-11-21T04:41:17.012Z,0
2016-11-21T04:41:49.336Z,0
2016-11-21T04:42:21.680Z,0
2016-11-21T04:42:53.981Z,0
2016-11-21T04:43:26.299Z,0
2016-11-21T04:43:58.618Z,0
2016-11-21T04:44:30.933Z,0
2016-11-21T04:45:03.251Z,0
2016-11-21T04:45:35.566Z,0
2016-11-21T04:46:07.895Z,0
2016-11-21T04:46:40.208Z,0
2016-11-21T04:47:12.539Z,0
2016-11-21T04:47:44.863Z,0
2016-11-21T04:48:17.179Z,0
2016-11-21T04:48:49.502Z,0
2016-11-21T04:49:21.844Z,0
2016-11-21T04:49:54.163Z,0
2016-11-21T04:50:26.488Z,0
2016-11-21T04:50:58.841Z,0
2016-11-21T04:51:31.164Z,0
2016-11-21T04:52:03.491Z,0
2016-11-21T04:52:35.818Z,0
2016-11-21T04:53:08.145Z,0
2016-11-21T04:53:40.474Z,0
2016-11-21T04:54:12.797Z,0
2016-11-21T04:54:45.118Z,0
2016-11-21T04:55:17.462Z,0
2016-11-21T04:55:49.817Z,0
2016-11-21T04:56:22.156Z,0
2016-11-21T04:56:54.482Z,0
2016-11-21T04:57:26.810Z,0
2016-11-21T04:57:59.128Z,0
2016-11-21T04:58:31.449Z,0
2016-11-21T04:59:03.780Z,0
2016-11-21T04:59:36.096Z,0
2016-11-21T05:00:08.428Z,0
2016-11-21T05:00:40.746Z,0
2016-11-21T05:01:13.090Z,0
2016-11-21T05:01:45.412Z,0
2016-11-21T05:02:17.737Z,0
2016-11-21T05:02:50.170Z,0
2016-11-21T05:03:22.488Z,0
2016-11-21T05:03:55.633Z,0
2016-11-21T05:04:27.974Z,0
2016-11-21T05:05:00.301Z,0
2016-11-21T05:05:32.632Z,0
2016-11-21T05:06:04.977Z,0
2016-11-21T05:06:37.302Z,0
2016-11-21T05:07:09.620Z,0
2016-11-21T05:07:41.943Z,0
2016-11-21T05:08:14.274Z,0
2016-11-21T05:08:46.586Z,0
2016-11-21T05:09:18.931Z,0
2016-11-21T05:09:51.284Z,0
2016-11-21T05:10:23.597Z,0
2016-11-21T05:10:55.912Z,0
2016-11-21T05:11:28.236Z,0
2016-11-21T05:12:00.566Z,0
2016-11-21T05:12:32.904Z,0
2016-11-21T05:13:05.229Z,0
2016-11-21T05:13:37.554Z,0
2016-11-21T05:14:09.890Z,0
2016-11-21T05:14:42.234Z,0
2016-11-21T05:15:14.554Z,0
2016-11-21T05:15:46.888Z,0
2016-11-21T05:16:19.242Z,0
2016-11-21T05:16:51.572Z,0
2016-11-21T05:17:23.906Z,0
2016-11-21T05:17:56.230Z,0
2016-11-21T05:18:28.572Z,0
2016-11-21T05:19:00.902Z,0
2016-11-21T05:19:33.235Z,0
2016-11-21T05:20:05.554Z,0
2016-11-21T05:20:37.877Z,0
2016-11-21T05:21:11.222Z,0
2016-11-21T05:21:43.544Z,0
2016-11-21T05:22:15.875Z,0
2016-11-21T05:22:48.206Z,0
2016-11-21T05:23:20.517Z,0
2016-11-21T05:23:52.844Z,0
2016-11-21T05:24:25.182Z,0
2016-11-21T05:24:57.502Z,0
2016-11-21T05:25:29.833Z,0
2016-11-21T05:26:02.183Z,0
2016-11-21T05:26:34.518Z,0
2016-11-21T05:27:06.880Z,0
2016-11-21T05:27:39.204Z,0
2016-11-21T05:28:11.519Z,0
2016-11-21T05:28:43.862Z,0
2016-11-21T05:29:16.176Z,0
2016-11-21T05:29:48.506Z,0
2016-11-21T05:30:20.842Z,0
2016-11-21T05:30:53.164Z,0
2016-11-21T05:31:25.494Z,0
2016-11-21T05:31:57.845Z,0
2016-11-21T05:32:30.176Z,0
2016-11-21T05:33:02.527Z,0
2016-11-21T05:33:34.844Z,0
2016-11-21T05:34:07.159Z,0
2016-11-21T05:34:39.499Z,0
2016-11-21T05:35:11.824Z,0
2016-11-21T05:35:44.168Z,0
2016-11-21T05:36:16.492Z,0
2016-11-21T05:36:48.813Z,0
2016-11-21T05:37:21.143Z,0
2016-11-21T05:37:53.457Z,0
2016-11-21T05:38:25.791Z,0
2016-11-21T05:38:58.128Z,0
2016-11-21T05:39:30.441Z,0
2016-11-21T05:40:02.742Z,0
2016-11-21T05:40:35.061Z,0
2016-11-21T05:41:07.411Z,0
2016-11-21T05:41:39.721Z,0
2016-11-21T05:42:12.048Z,0
2016-11-21T05:42:44.376Z,0
2016-11-21T05:43:16.698Z,0
2016-11-21T05:43:49.698Z,0
2016-11-21T05:44:22.017Z,0
2016-11-21T05:44:54.340Z,0
2016-11-21T05:45:26.678Z,0
2016-11-21T05:45:59.011Z,0
2016-11-21T05:46:31.359Z,0
2016-11-21T05:47:03.686Z,0
2016-11-21T05:47:36.009Z,0
2016-11-21T05:48:08.336Z,0
2016-11-21T05:48:40.718Z,0
2016-11-21T05:49:13.042Z,0
2016-11-21T05:49:45.344Z,0
2016-11-21T05:50:17.670Z,0
2016-11-21T05:50:49.977Z,0
2016-11-21T05:51:22.304Z,0
2016-11-21T05:51:55.665Z,0
2016-11-21T05:52:27.967Z,0
2016-11-21T05:53:00.284Z,0
2016-11-21T05:53:32.616Z,0
2016-11-21T05:54:04.944Z,0
2016-11-21T05:54:37.285Z,0
2016-11-21T05:55:09.640Z,0
2016-11-21T05:55:41.952Z,0
2016-11-21T05:56:14.277Z,0
2016-11-21T05:56:46.604Z,0
2016-11-21T05:57:18.925Z,0
2016-11-21T05:57:51.260Z,0
2016-11-21T05:58:23.591Z,0
2016-11-21T05:58:55.899Z,0
2016-11-21T05:59:28.220Z,0
2016-11-21T06:00:00.560Z,0
2016-11-21T06:00:32.934Z,0
2016-11-21T06:01:05.258Z,0
2016-11-21T06:01:37.582Z,0
2016-11-21T06:02:09.904Z,0
2016-11-21T06:02:42.230Z,0
2016-11-21T06:03:14.553Z,0
2016-11-21T06:03:46.905Z,0
2016-11-21T06:04:19.216Z,0
2016-11-21T06:04:51.538Z,0
2016-11-21T06:05:23.870Z,0
2016-11-21T06:05:56.201Z,0
2016-11-21T06:06:28.523Z,0
2016-11-21T06:07:00.837Z,0
2016-11-21T06:07:33.161Z,0
2016-11-21T06:08:05.548Z,0
2016-11-21T06:08:38.020Z,0
2016-11-21T06:09:10.327Z,0
2016-11-21T06:09:42.648Z,0
2016-11-21T06:10:14.977Z,0
2016-11-21T06:10:47.336Z,0
2016-11-21T06:11:19.655Z,0
2016-11-21T06:11:51.978Z,0
2016-11-21T06:12:24.318Z,0
2016-11-21T06:12:56.651Z,0
2016-11-21T06:13:28.970Z,0
2016-11-21T06:14:01.298Z,0
2016-11-21T06:14:33.621Z,0
2016-11-21T06:15:05.924Z,0
2016-11-21T06:15:38.254Z,0
2016-11-21T06:16:10.561Z,0
2016-11-21T06:16:42.881Z,0
2016-11-21T06:17:15.196Z,0
2016-11-21T06:17:47.539Z,0
2016-11-21T06:18:19.858Z,0
2016-11-21T06:18:52.209Z,0
2016-11-21T06:19:24.540Z,0
2016-11-21T06:19:56.893Z,0
2016-11-21T06:20:29.219Z,0
2016-11-21T06:21:01.522Z,0
2016-11-21T06:21:33.856Z,0
2016-11-21T06:22:06.175Z,0
2016-11-21T06:22:38.497Z,0
2016-11-21T06:23:10.837Z,0
2016-11-21T06:23:43.157Z,0
2016-11-21T06:24:15.475Z,0
2016-11-21T06:24:47.797Z,0
2016-11-21T06:25:20.131Z,0
2016-11-21T06:25:52.461Z,0
2016-11-21T06:26:24.820Z,0
2016-11-21T06:26:58.766Z,0
2016-11-21T06:27:31.668Z,0
2016-11-21T06:28:03.988Z,0
2016-11-21T06:28:36.323Z,0
2016-11-21T06:29:08.694Z,0
2016-11-21T06:29:41.089Z,0
2016-11-21T06:30:13.396Z,0
2016-11-21T06:30:45.719Z,0
2016-11-21T06:31:18.036Z,0
2016-11-21T06:31:50.336Z,0
2016-11-21T06:32:22.657Z,0
2016-11-21T06:32:54.988Z,0
2016-11-21T06:33:27.305Z,0
2016-11-21T06:33:59.616Z,0
2016-11-21T06:34:31.933Z,0
2016-11-21T06:35:04.243Z,0
2016-11-21T06:35:36.567Z,0
2016-11-21T06:36:08.884Z,4
2016-11-21T06:36:41.217Z,4
2016-11-21T06:37:13.561Z,4
2016-11-21T06:37:45.895Z,4
2016-11-21T06:38:18.201Z,4
2016-11-21T06:38:50.541Z,4
2016-11-21T06:39:22.874Z,4
2016-11-21T06:39:55.191Z,4
2016-11-21T06:40:27.524Z,4
2016-11-21T06:40:59.848Z,4
2016-11-21T06:41:32.176Z,4
2016-11-21T06:42:04.481Z,0
2016-11-21T06:42:36.790Z,0
2016-11-21T06:43:09.109Z,0
2016-11-21T06:43:41.476Z,4
2016-11-21T06:44:14.189Z,4
2016-11-21T06:44:46.651Z,4
2016-11-21T06:45:18.991Z,4
2016-11-21T06:45:51.336Z,4
2016-11-21T06:46:23.663Z,8
2016-11-21T06:46:55.991Z,8
2016-11-21T06:47:28.295Z,4
2016-11-21T06:48:00.608Z,8
2016-11-21T06:48:32.942Z,8
2016-11-21T06:49:05.597Z,8
2016-11-21T06:49:38.005Z,8
2016-11-21T06:50:10.347Z,8
2016-11-21T06:50:42.691Z,8
2016-11-21T06:51:15.305Z,8
2016-11-21T06:51:47.692Z,12
2016-11-21T06:52:20.012Z,12
2016-11-21T06:52:52.335Z,12
2016-11-21T06:53:24.665Z,8
2016-11-21T06:53:56.991Z,12
2016-11-21T06:54:29.333Z,16
2016-11-21T06:55:01.663Z,12
2016-11-21T06:55:33.973Z,16
2016-11-21T06:56:06.306Z,16
2016-11-21T06:56:38.638Z,16
2016-11-21T06:57:10.983Z,20
2016-11-21T06:57:43.310Z,20
2016-11-21T06:58:15.627Z,16
2016-11-21T06:58:47.953Z,20
2016-11-21T06:59:20.271Z,24
2016-11-21T06:59:52.582Z,24
2016-11-21T07:00:24.879Z,24
2016-11-21T07:00:57.241Z,28
2016-11-21T07:01:30.721Z,28
2016-11-21T07:02:03.052Z,32
2016-11-21T07:02:35.370Z,32
2016-11-21T07:03:07.741Z,36
2016-11-21T07:03:40.103Z,36
2016-11-21T07:04:12.422Z,36
2016-11-21T07:04:44.735Z,40
2016-11-21T07:05:17.046Z,40
2016-11-21T07:05:49.359Z,44
2016-11-21T07:06:21.690Z,44
2016-11-21T07:06:54.007Z,48
2016-11-21T07:07:26.314Z,52
2016-11-21T07:07:58.635Z,56
2016-11-21T07:08:31.031Z,60
2016-11-21T07:09:04.199Z,68
2016-11-21T07:09:36.528Z,76
2016-11-21T07:10:08.851Z,84
2016-11-21T07:10:41.165Z,92
2016-11-21T07:11:13.512Z,100
2016-11-21T07:11:45.876Z,100
2016-11-21T07:12:18.195Z,104
2016-11-21T07:12:50.503Z,104
2016-11-21T07:13:22.833Z,108
2016-11-21T07:13:55.159Z,116
2016-11-21T07:14:27.476Z,120
2016-11-21T07:14:59.783Z,124
2016-11-21T07:15:32.114Z,132
2016-11-21T07:16:04.429Z,132
2016-11-21T07:16:36.786Z,136
2016-11-21T07:17:09.108Z,136
2016-11-21T07:17:41.442Z,140
2016-11-21T07:18:13.782Z,144
2016-11-21T07:18:46.359Z,144
2016-11-21T07:19:18.691Z,144
2016-11-21T07:19:51.007Z,148
2016-11-21T07:20:23.322Z,152
2016-11-21T07:20:55.629Z,156
2016-11-21T07:21:27.957Z,164
2016-11-21T07:22:00.283Z,176
2016-11-21T07:22:32.585Z,188
2016-11-21T07:23:04.911Z,196
2016-11-21T07:23:37.271Z,208
2016-11-21T07:24:09.585Z,216
2016-11-21T07:24:41.920Z,224
2016-11-21T07:25:14.236Z,232
2016-11-21T07:25:47.624Z,236
2016-11-21T07:26:21.115Z,240
2016-11-21T07:26:54.474Z,244
2016-11-21T07:27:29.019Z,256
2016-11-21T07:28:02.369Z,268
2016-11-21T07:28:37.831Z,288
2016-11-21T07:29:16.308Z,304
2016-11-21T07:29:54.002Z,316
2016-11-21T07:30:30.327Z,320
2016-11-21T07:31:05.821Z,332
2016-11-21T07:31:40.822Z,340
2016-11-21T07:32:16.143Z,348
2016-11-21T07:32:50.039Z,360
2016-11-21T07:33:24.145Z,372
2016-11-21T07:33:58.758Z,380
2016-11-21T07:34:33.822Z,392
2016-11-21T07:35:07.379Z,400
2016-11-21T07:35:40.984Z,408
2016-11-21T07:36:13.470Z,416
2016-11-21T07:36:45.795Z,416
2016-11-21T07:37:18.116Z,420
2016-11-21T07:37:50.433Z,424
2016-11-21T07:38:22.754Z,424
2016-11-21T07:38:55.084Z,424
2016-11-21T07:39:27.421Z,420
2016-11-21T07:39:59.745Z,416
2016-11-21T07:40:32.096Z,408
2016-11-21T07:41:04.417Z,400
2016-11-21T07:41:36.744Z,396
2016-11-21T07:42:10.856Z,388
2016-11-21T07:42:45.221Z,384
2016-11-21T07:43:17.541Z,388
2016-11-21T07:43:49.859Z,388
2016-11-21T07:44:22.173Z,392
2016-11-21T07:44:54.475Z,392
2016-11-21T07:45:27.715Z,400
2016-11-21T07:46:00.015Z,408
2016-11-21T07:46:32.333Z,408
2016-11-21T07:47:05.359Z,412
2016-11-21T07:47:37.685Z,416
2016-11-21T07:48:10.027Z,416
2016-11-21T07:48:42.348Z,420
2016-11-21T07:49:14.683Z,424
2016-11-21T07:49:47.003Z,432
2016-11-21T07:50:19.334Z,432
2016-11-21T07:50:51.667Z,432
2016-11-21T07:51:23.988Z,432
2016-11-21T07:51:56.314Z,428
2016-11-21T07:52:28.887Z,428
2016-11-21T07:53:01.354Z,432
2016-11-21T07:53:33.685Z,432
2016-11-21T07:54:06.022Z,436
2016-11-21T07:54:38.335Z,432
2016-11-21T07:55:10.627Z,432